Egegik, Alaska
Current Conditions -  °F | °C
As of 7:56 PM on Friday 28 Nov 2014 (Local Time) from PFWS Reporting Station
Light Rain Light Rain  
Wind Chill: 33°   Ceiling: 3700
Heat Index: 33°   Visibility: 10mi
Dew Point: 33°   Wind: 0mph
Humidity: 100%   Direction: NA
Pressure: 30.08"   Gusts: NA
Location:  58.21°N, 157.37°W
Report Text: PFWS 290456Z AUTO 00000KT 10SM -RA BKN037 OVC048 01/01 A3008 RMK AO2 SLP191 P0000 T00060006 FZRANO
Loading
Personal Weather Stations






























Interactive Weather Map New forecast layout! Learn more

10-Day Weather Forecast

Advertisements
Track Severe Weather on mobile